sensor_id;sensor_type;location;lat;lon;timestamp;P1;durP1;ratioP1;P2;durP2;ratioP2
15526;SDS011;7865;50.918;4.510;2023-04-03T00:02:59;12.70;;;10.43;;
15526;SDS011;7865;50.918;4.510;2023-04-03T00:08:01;13.67;;;10.20;;
15526;SDS011;7865;50.918;4.510;2023-04-03T00:13:04;13.07;;;9.80;;
15526;SDS011;7865;50.918;4.510;2023-04-03T00:18:07;12.90;;;9.13;;
15526;SDS011;7865;50.918;4.510;2023-04-03T00:23:09;10.20;;;8.67;;
15526;SDS011;7865;50.918;4.510;2023-04-03T00:28:11;12.40;;;9.00;;
15526;SDS011;7865;50.918;4.510;2023-04-03T00:33:13;22.60;;;14.17;;
15526;SDS011;7865;50.918;4.510;2023-04-03T00:38:16;19.40;;;13.60;;
15526;SDS011;7865;50.918;4.510;2023-04-03T00:43:23;14.87;;;11.23;;
15526;SDS011;7865;50.918;4.510;2023-04-03T00:48:34;14.47;;;9.70;;
15526;SDS011;7865;50.918;4.510;2023-04-03T00:53:42;14.83;;;10.37;;
15526;SDS011;7865;50.918;4.510;2023-04-03T01:09:32;15.97;;;10.90;;
15526;SDS011;7865;50.918;4.510;2023-04-03T01:14:35;14.10;;;10.97;;
15526;SDS011;7865;50.918;4.510;2023-04-03T01:19:37;14.30;;;10.83;;
15526;SDS011;7865;50.918;4.510;2023-04-03T01:24:47;20.20;;;10.63;;
15526;SDS011;7865;50.918;4.510;2023-04-03T01:29:49;18.33;;;10.67;;
15526;SDS011;7865;50.918;4.510;2023-04-03T01:34:52;15.17;;;10.53;;
15526;SDS011;7865;50.918;4.510;2023-04-03T01:39:54;13.57;;;9.30;;
15526;SDS011;7865;50.918;4.510;2023-04-03T01:44:57;12.33;;;9.67;;
15526;SDS011;7865;50.918;4.510;2023-04-03T01:49:59;12.33;;;9.30;;
15526;SDS011;7865;50.918;4.510;2023-04-03T01:55:03;16.53;;;11.43;;
15526;SDS011;7865;50.918;4.510;2023-04-03T02:00:06;18.83;;;11.30;;
15526;SDS011;7865;50.918;4.510;2023-04-03T02:05:13;23.23;;;12.50;;
15526;SDS011;7865;50.918;4.510;2023-04-03T02:10:15;20.27;;;11.27;;
15526;SDS011;7865;50.918;4.510;2023-04-03T02:15:18;17.10;;;10.53;;
15526;SDS011;7865;50.918;4.510;2023-04-03T02:20:21;17.73;;;9.90;;
15526;SDS011;7865;50.918;4.510;2023-04-03T02:25:23;16.00;;;9.60;;
15526;SDS011;7865;50.918;4.510;2023-04-03T02:30:26;10.87;;;9.20;;
15526;SDS011;7865;50.918;4.510;2023-04-03T02:35:29;14.63;;;9.93;;
15526;SDS011;7865;50.918;4.510;2023-04-03T02:40:33;11.87;;;10.10;;
15526;SDS011;7865;50.918;4.510;2023-04-03T02:45:35;14.93;;;9.97;;
15526;SDS011;7865;50.918;4.510;2023-04-03T02:50:38;14.23;;;9.17;;
15526;SDS011;7865;50.918;4.510;2023-04-03T02:55:40;11.57;;;8.93;;
15526;SDS011;7865;50.918;4.510;2023-04-03T03:00:42;13.70;;;9.10;;
15526;SDS011;7865;50.918;4.510;2023-04-03T03:05:44;14.77;;;10.67;;
15526;SDS011;7865;50.918;4.510;2023-04-03T03:10:46;13.17;;;10.30;;
15526;SDS011;7865;50.918;4.510;2023-04-03T03:15:48;13.77;;;10.17;;
15526;SDS011;7865;50.918;4.510;2023-04-03T03:20:52;11.47;;;9.30;;
15526;SDS011;7865;50.918;4.510;2023-04-03T03:25:56;16.63;;;10.27;;
15526;SDS011;7865;50.918;4.510;2023-04-03T03:30:59;13.97;;;9.37;;
15526;SDS011;7865;50.918;4.510;2023-04-03T03:36:03;16.50;;;10.00;;
15526;SDS011;7865;50.918;4.510;2023-04-03T03:41:05;13.63;;;9.97;;
15526;SDS011;7865;50.918;4.510;2023-04-03T03:46:09;13.33;;;9.33;;
15526;SDS011;7865;50.918;4.510;2023-04-03T03:51:11;12.97;;;9.57;;
15526;SDS011;7865;50.918;4.510;2023-04-03T03:56:13;14.30;;;10.07;;
15526;SDS011;7865;50.918;4.510;2023-04-03T04:01:17;14.10;;;9.90;;
15526;SDS011;7865;50.918;4.510;2023-04-03T04:06:22;15.83;;;9.43;;
15526;SDS011;7865;50.918;4.510;2023-04-03T04:11:26;14.23;;;8.83;;
15526;SDS011;7865;50.918;4.510;2023-04-03T04:16:29;12.60;;;8.67;;
15526;SDS011;7865;50.918;4.510;2023-04-03T04:21:37;16.50;;;10.67;;
15526;SDS011;7865;50.918;4.510;2023-04-03T04:26:40;14.00;;;9.83;;
15526;SDS011;7865;50.918;4.510;2023-04-03T04:31:45;14.67;;;9.17;;
15526;SDS011;7865;50.918;4.510;2023-04-03T04:36:47;15.43;;;9.67;;
15526;SDS011;7865;50.918;4.510;2023-04-03T04:41:49;15.63;;;10.13;;
15526;SDS011;7865;50.918;4.510;2023-04-03T04:46:52;14.73;;;9.80;;
15526;SDS011;7865;50.918;4.510;2023-04-03T04:51:55;15.93;;;10.33;;
15526;SDS011;7865;50.918;4.510;2023-04-03T04:57:02;16.17;;;10.93;;
15526;SDS011;7865;50.918;4.510;2023-04-03T05:02:05;17.37;;;11.23;;
15526;SDS011;7865;50.918;4.510;2023-04-03T05:07:08;16.07;;;12.43;;
15526;SDS011;7865;50.918;4.510;2023-04-03T05:12:11;16.63;;;12.67;;
15526;SDS011;7865;50.918;4.510;2023-04-03T05:17:20;17.73;;;12.03;;
15526;SDS011;7865;50.918;4.510;2023-04-03T05:22:26;20.87;;;13.93;;
15526;SDS011;7865;50.918;4.510;2023-04-03T05:27:33;16.40;;;12.47;;
15526;SDS011;7865;50.918;4.510;2023-04-03T05:32:36;20.47;;;12.43;;
15526;SDS011;7865;50.918;4.510;2023-04-03T05:37:48;19.73;;;12.63;;
15526;SDS011;7865;50.918;4.510;2023-04-03T05:42:51;19.57;;;13.77;;
15526;SDS011;7865;50.918;4.510;2023-04-03T05:47:57;21.20;;;13.03;;
15526;SDS011;7865;50.918;4.510;2023-04-03T05:52:59;24.77;;;13.27;;
15526;SDS011;7865;50.918;4.510;2023-04-03T05:58:07;23.33;;;12.43;;
15526;SDS011;7865;50.918;4.510;2023-04-03T06:03:12;21.83;;;13.50;;
15526;SDS011;7865;50.918;4.510;2023-04-03T06:08:15;20.73;;;15.47;;
15526;SDS011;7865;50.918;4.510;2023-04-03T06:13:17;31.80;;;18.17;;
15526;SDS011;7865;50.918;4.510;2023-04-03T06:18:19;33.57;;;21.33;;
15526;SDS011;7865;50.918;4.510;2023-04-03T06:23:21;32.70;;;20.40;;
15526;SDS011;7865;50.918;4.510;2023-04-03T06:28:24;21.83;;;16.90;;
15526;SDS011;7865;50.918;4.510;2023-04-03T06:33:28;25.50;;;18.63;;
15526;SDS011;7865;50.918;4.510;2023-04-03T06:38:30;20.70;;;15.73;;
15526;SDS011;7865;50.918;4.510;2023-04-03T06:43:33;19.10;;;14.73;;
15526;SDS011;7865;50.918;4.510;2023-04-03T06:48:35;16.50;;;12.97;;
15526;SDS011;7865;50.918;4.510;2023-04-03T06:53:37;16.87;;;11.87;;
15526;SDS011;7865;50.918;4.510;2023-04-03T06:58:39;18.33;;;12.57;;
15526;SDS011;7865;50.918;4.510;2023-04-03T07:03:42;14.43;;;10.00;;
15526;SDS011;7865;50.918;4.510;2023-04-03T07:08:44;12.53;;;9.60;;
15526;SDS011;7865;50.918;4.510;2023-04-03T07:13:47;18.30;;;8.67;;
15526;SDS011;7865;50.918;4.510;2023-04-03T07:18:50;9.90;;;7.90;;
15526;SDS011;7865;50.918;4.510;2023-04-03T07:23:52;7.83;;;7.03;;
15526;SDS011;7865;50.918;4.510;2023-04-03T07:28:55;8.77;;;7.07;;
15526;SDS011;7865;50.918;4.510;2023-04-03T07:33:57;9.07;;;7.10;;
15526;SDS011;7865;50.918;4.510;2023-04-03T07:38:59;10.27;;;7.10;;
15526;SDS011;7865;50.918;4.510;2023-04-03T07:44:01;9.40;;;6.77;;
15526;SDS011;7865;50.918;4.510;2023-04-03T07:49:03;12.30;;;7.67;;
15526;SDS011;7865;50.918;4.510;2023-04-03T07:54:06;12.83;;;7.17;;
15526;SDS011;7865;50.918;4.510;2023-04-03T07:59:08;10.03;;;6.90;;
15526;SDS011;7865;50.918;4.510;2023-04-03T08:04:12;11.83;;;7.00;;
15526;SDS011;7865;50.918;4.510;2023-04-03T08:09:14;7.60;;;5.50;;
15526;SDS011;7865;50.918;4.510;2023-04-03T08:14:17;9.60;;;5.83;;
15526;SDS011;7865;50.918;4.510;2023-04-03T08:19:20;7.93;;;5.93;;
15526;SDS011;7865;50.918;4.510;2023-04-03T08:24:27;9.87;;;6.07;;
15526;SDS011;7865;50.918;4.510;2023-04-03T08:29:29;7.17;;;5.33;;
15526;SDS011;7865;50.918;4.510;2023-04-03T08:34:34;6.00;;;4.60;;
15526;SDS011;7865;50.918;4.510;2023-04-03T08:39:38;5.83;;;4.60;;
15526;SDS011;7865;50.918;4.510;2023-04-03T08:44:47;8.70;;;4.80;;
15526;SDS011;7865;50.918;4.510;2023-04-03T08:50:20;5.80;;;4.53;;
15526;SDS011;7865;50.918;4.510;2023-04-03T08:55:34;7.27;;;4.40;;
15526;SDS011;7865;50.918;4.510;2023-04-03T09:00:46;4.10;;;3.53;;
15526;SDS011;7865;50.918;4.510;2023-04-03T09:05:57;6.67;;;4.23;;
15526;SDS011;7865;50.918;4.510;2023-04-03T09:16:28;4.40;;;3.33;;
15526;SDS011;7865;50.918;4.510;2023-04-03T09:21:51;6.20;;;3.37;;
15526;SDS011;7865;50.918;4.510;2023-04-03T09:26:58;4.90;;;3.33;;
15526;SDS011;7865;50.918;4.510;2023-04-03T09:32:48;5.13;;;2.97;;
15526;SDS011;7865;50.918;4.510;2023-04-03T09:42:44;4.97;;;3.00;;
15526;SDS011;7865;50.918;4.510;2023-04-03T09:53:28;8.90;;;2.90;;
15526;SDS011;7865;50.918;4.510;2023-04-03T09:58:38;6.07;;;2.77;;
15526;SDS011;7865;50.918;4.510;2023-04-03T10:04:05;4.80;;;2.33;;
15526;SDS011;7865;50.918;4.510;2023-04-03T10:09:22;8.57;;;2.93;;
15526;SDS011;7865;50.918;4.510;2023-04-03T10:14:24;4.22;;;2.55;;
15526;SDS011;7865;50.918;4.510;2023-04-03T10:30:57;4.60;;;2.15;;
15526;SDS011;7865;50.918;4.510;2023-04-03T10:46:41;5.13;;;2.38;;
15526;SDS011;7865;50.918;4.510;2023-04-03T10:51:52;7.50;;;2.75;;
15526;SDS011;7865;50.918;4.510;2023-04-03T10:57:08;5.32;;;2.25;;
15526;SDS011;7865;50.918;4.510;2023-04-03T11:02:25;4.35;;;2.13;;
15526;SDS011;7865;50.918;4.510;2023-04-03T11:07:33;4.13;;;2.05;;
15526;SDS011;7865;50.918;4.510;2023-04-03T11:12:42;5.50;;;1.77;;
15526;SDS011;7865;50.918;4.510;2023-04-03T11:23:01;3.85;;;1.63;;
15526;SDS011;7865;50.918;4.510;2023-04-03T11:28:20;6.03;;;2.13;;
15526;SDS011;7865;50.918;4.510;2023-04-03T11:39:48;3.53;;;1.77;;
15526;SDS011;7865;50.918;4.510;2023-04-03T11:44:34;4.45;;;2.10;;
15526;SDS011;7865;50.918;4.510;2023-04-03T11:49:54;3.05;;;1.90;;
15526;SDS011;7865;50.918;4.510;2023-04-03T11:55:00;7.00;;;2.03;;
15526;SDS011;7865;50.918;4.510;2023-04-03T12:00:44;3.67;;;1.23;;
15526;SDS011;7865;50.918;4.510;2023-04-03T12:05:43;2.97;;;1.50;;
15526;SDS011;7865;50.918;4.510;2023-04-03T12:11:12;3.45;;;1.60;;
15526;SDS011;7865;50.918;4.510;2023-04-03T12:37:20;3.25;;;1.80;;
15526;SDS011;7865;50.918;4.510;2023-04-03T12:42:32;2.90;;;1.38;;
15526;SDS011;7865;50.918;4.510;2023-04-03T12:47:55;2.08;;;1.50;;
15526;SDS011;7865;50.918;4.510;2023-04-03T12:53:14;4.93;;;1.75;;
15526;SDS011;7865;50.918;4.510;2023-04-03T12:58:27;1.92;;;1.20;;
15526;SDS011;7865;50.918;4.510;2023-04-03T13:03:29;1.80;;;1.15;;
15526;SDS011;7865;50.918;4.510;2023-04-03T13:08:33;2.47;;;1.65;;
15526;SDS011;7865;50.918;4.510;2023-04-03T13:13:35;2.95;;;1.40;;
15526;SDS011;7865;50.918;4.510;2023-04-03T13:18:38;3.50;;;1.50;;
15526;SDS011;7865;50.918;4.510;2023-04-03T13:23:40;2.03;;;1.40;;
15526;SDS011;7865;50.918;4.510;2023-04-03T13:28:46;4.60;;;1.70;;
15526;SDS011;7865;50.918;4.510;2023-04-03T13:39:06;2.75;;;1.40;;
15526;SDS011;7865;50.918;4.510;2023-04-03T13:44:15;3.00;;;1.35;;
15526;SDS011;7865;50.918;4.510;2023-04-03T13:54:41;3.58;;;1.55;;
15526;SDS011;7865;50.918;4.510;2023-04-03T13:59:43;3.75;;;2.10;;
15526;SDS011;7865;50.918;4.510;2023-04-03T14:04:56;4.18;;;2.00;;
15526;SDS011;7865;50.918;4.510;2023-04-03T14:10:02;3.80;;;1.55;;
15526;SDS011;7865;50.918;4.510;2023-04-03T14:15:10;2.38;;;1.60;;
15526;SDS011;7865;50.918;4.510;2023-04-03T14:20:21;3.00;;;1.60;;
15526;SDS011;7865;50.918;4.510;2023-04-03T14:25:25;3.03;;;1.52;;
15526;SDS011;7865;50.918;4.510;2023-04-03T14:30:29;3.45;;;1.70;;
15526;SDS011;7865;50.918;4.510;2023-04-03T14:35:33;9.15;;;2.65;;
15526;SDS011;7865;50.918;4.510;2023-04-03T14:40:35;2.60;;;1.60;;
15526;SDS011;7865;50.918;4.510;2023-04-03T14:45:38;5.55;;;1.85;;
15526;SDS011;7865;50.918;4.510;2023-04-03T14:50:40;3.33;;;1.73;;
15526;SDS011;7865;50.918;4.510;2023-04-03T14:55:55;7.65;;;1.42;;
15526;SDS011;7865;50.918;4.510;2023-04-03T15:00:57;3.15;;;1.50;;
15526;SDS011;7865;50.918;4.510;2023-04-03T15:05:59;3.28;;;1.30;;
15526;SDS011;7865;50.918;4.510;2023-04-03T15:11:01;2.08;;;1.23;;
15526;SDS011;7865;50.918;4.510;2023-04-03T15:16:04;3.28;;;1.40;;
15526;SDS011;7865;50.918;4.510;2023-04-03T15:21:06;3.10;;;1.63;;
15526;SDS011;7865;50.918;4.510;2023-04-03T15:26:08;2.22;;;1.45;;
15526;SDS011;7865;50.918;4.510;2023-04-03T15:31:11;3.60;;;1.42;;
15526;SDS011;7865;50.918;4.510;2023-04-03T15:36:13;3.30;;;1.20;;
15526;SDS011;7865;50.918;4.510;2023-04-03T15:41:33;2.00;;;1.20;;
15526;SDS011;7865;50.918;4.510;2023-04-03T15:46:36;2.67;;;1.33;;
15526;SDS011;7865;50.918;4.510;2023-04-03T15:51:38;3.67;;;1.53;;
15526;SDS011;7865;50.918;4.510;2023-04-03T15:56:40;4.67;;;1.70;;
15526;SDS011;7865;50.918;4.510;2023-04-03T16:01:42;4.43;;;1.60;;
15526;SDS011;7865;50.918;4.510;2023-04-03T16:06:45;4.07;;;1.40;;
15526;SDS011;7865;50.918;4.510;2023-04-03T16:11:47;3.60;;;1.50;;
15526;SDS011;7865;50.918;4.510;2023-04-03T16:16:49;3.10;;;1.93;;
15526;SDS011;7865;50.918;4.510;2023-04-03T16:21:52;2.37;;;1.43;;
15526;SDS011;7865;50.918;4.510;2023-04-03T16:26:55;2.93;;;1.40;;
15526;SDS011;7865;50.918;4.510;2023-04-03T16:31:57;4.43;;;2.40;;
15526;SDS011;7865;50.918;4.510;2023-04-03T16:37:00;3.20;;;1.67;;
15526;SDS011;7865;50.918;4.510;2023-04-03T16:42:02;5.13;;;1.63;;
15526;SDS011;7865;50.918;4.510;2023-04-03T16:47:04;6.33;;;1.73;;
15526;SDS011;7865;50.918;4.510;2023-04-03T16:52:06;4.53;;;2.33;;
15526;SDS011;7865;50.918;4.510;2023-04-03T16:57:08;2.43;;;1.57;;
15526;SDS011;7865;50.918;4.510;2023-04-03T17:02:10;5.07;;;1.67;;
15526;SDS011;7865;50.918;4.510;2023-04-03T17:07:12;8.13;;;1.83;;
15526;SDS011;7865;50.918;4.510;2023-04-03T17:12:14;6.30;;;2.17;;
15526;SDS011;7865;50.918;4.510;2023-04-03T17:17:21;6.90;;;2.00;;
15526;SDS011;7865;50.918;4.510;2023-04-03T17:22:25;3.57;;;1.53;;
15526;SDS011;7865;50.918;4.510;2023-04-03T17:27:27;3.77;;;1.90;;
15526;SDS011;7865;50.918;4.510;2023-04-03T17:32:29;3.10;;;1.67;;
15526;SDS011;7865;50.918;4.510;2023-04-03T17:37:31;2.67;;;2.00;;
15526;SDS011;7865;50.918;4.510;2023-04-03T17:42:33;3.50;;;1.93;;
15526;SDS011;7865;50.918;4.510;2023-04-03T17:47:35;2.87;;;1.60;;
15526;SDS011;7865;50.918;4.510;2023-04-03T17:52:37;3.60;;;1.87;;
15526;SDS011;7865;50.918;4.510;2023-04-03T17:57:39;3.20;;;1.80;;
15526;SDS011;7865;50.918;4.510;2023-04-03T18:02:41;3.03;;;1.50;;
15526;SDS011;7865;50.918;4.510;2023-04-03T18:07:43;6.63;;;2.50;;
15526;SDS011;7865;50.918;4.510;2023-04-03T18:12:46;2.90;;;1.87;;
15526;SDS011;7865;50.918;4.510;2023-04-03T18:17:48;3.97;;;2.00;;
15526;SDS011;7865;50.918;4.510;2023-04-03T18:22:52;3.97;;;2.10;;
15526;SDS011;7865;50.918;4.510;2023-04-03T18:27:54;3.10;;;1.90;;
15526;SDS011;7865;50.918;4.510;2023-04-03T18:32:58;5.07;;;1.60;;
15526;SDS011;7865;50.918;4.510;2023-04-03T18:38:00;4.20;;;2.30;;
15526;SDS011;7865;50.918;4.510;2023-04-03T18:43:02;5.93;;;1.90;;
15526;SDS011;7865;50.918;4.510;2023-04-03T18:48:04;6.77;;;2.00;;
15526;SDS011;7865;50.918;4.510;2023-04-03T18:53:06;5.23;;;2.10;;
15526;SDS011;7865;50.918;4.510;2023-04-03T18:58:08;5.83;;;1.97;;
15526;SDS011;7865;50.918;4.510;2023-04-03T19:03:11;2.83;;;1.80;;
15526;SDS011;7865;50.918;4.510;2023-04-03T19:08:14;3.47;;;1.70;;
15526;SDS011;7865;50.918;4.510;2023-04-03T19:13:16;2.17;;;1.60;;
15526;SDS011;7865;50.918;4.510;2023-04-03T19:18:18;3.03;;;2.00;;
15526;SDS011;7865;50.918;4.510;2023-04-03T19:23:20;5.20;;;2.30;;
15526;SDS011;7865;50.918;4.510;2023-04-03T19:28:22;4.87;;;2.73;;
15526;SDS011;7865;50.918;4.510;2023-04-03T19:33:25;5.73;;;2.33;;
15526;SDS011;7865;50.918;4.510;2023-04-03T19:38:27;4.63;;;2.50;;
15526;SDS011;7865;50.918;4.510;2023-04-03T19:43:29;7.00;;;2.90;;
15526;SDS011;7865;50.918;4.510;2023-04-03T19:48:31;3.80;;;2.30;;
15526;SDS011;7865;50.918;4.510;2023-04-03T19:53:33;4.00;;;2.47;;
15526;SDS011;7865;50.918;4.510;2023-04-03T19:58:35;5.10;;;2.60;;
15526;SDS011;7865;50.918;4.510;2023-04-03T20:03:39;5.60;;;2.10;;
15526;SDS011;7865;50.918;4.510;2023-04-03T20:08:42;4.97;;;2.00;;
15526;SDS011;7865;50.918;4.510;2023-04-03T20:13:47;4.87;;;2.53;;
15526;SDS011;7865;50.918;4.510;2023-04-03T20:18:51;3.63;;;2.37;;
15526;SDS011;7865;50.918;4.510;2023-04-03T20:23:56;2.27;;;1.67;;
15526;SDS011;7865;50.918;4.510;2023-04-03T20:28:59;4.73;;;1.80;;
15526;SDS011;7865;50.918;4.510;2023-04-03T20:34:03;4.23;;;2.23;;
15526;SDS011;7865;50.918;4.510;2023-04-03T20:39:05;6.23;;;2.07;;
15526;SDS011;7865;50.918;4.510;2023-04-03T20:44:07;4.90;;;2.03;;
15526;SDS011;7865;50.918;4.510;2023-04-03T20:49:09;4.33;;;2.30;;
15526;SDS011;7865;50.918;4.510;2023-04-03T20:54:11;2.63;;;1.50;;
15526;SDS011;7865;50.918;4.510;2023-04-03T20:59:13;5.97;;;1.93;;
15526;SDS011;7865;50.918;4.510;2023-04-03T21:04:24;3.17;;;1.67;;
15526;SDS011;7865;50.918;4.510;2023-04-03T21:20:56;6.03;;;2.23;;
15526;SDS011;7865;50.918;4.510;2023-04-03T21:25:58;4.83;;;2.00;;
15526;SDS011;7865;50.918;4.510;2023-04-03T21:31:00;6.27;;;2.43;;
15526;SDS011;7865;50.918;4.510;2023-04-03T21:36:02;3.90;;;2.00;;
15526;SDS011;7865;50.918;4.510;2023-04-03T21:41:04;7.27;;;2.30;;
15526;SDS011;7865;50.918;4.510;2023-04-03T21:46:06;6.67;;;1.83;;
15526;SDS011;7865;50.918;4.510;2023-04-03T21:51:08;3.43;;;1.93;;
15526;SDS011;7865;50.918;4.510;2023-04-03T21:56:11;7.63;;;4.43;;
15526;SDS011;7865;50.918;4.510;2023-04-03T22:01:14;5.87;;;2.50;;
15526;SDS011;7865;50.918;4.510;2023-04-03T22:06:16;5.67;;;2.60;;
15526;SDS011;7865;50.918;4.510;2023-04-03T22:11:18;4.67;;;2.23;;
15526;SDS011;7865;50.918;4.510;2023-04-03T22:16:23;4.40;;;2.10;;
15526;SDS011;7865;50.918;4.510;2023-04-03T22:21:25;7.87;;;2.13;;
15526;SDS011;7865;50.918;4.510;2023-04-03T22:26:27;6.03;;;2.23;;
15526;SDS011;7865;50.918;4.510;2023-04-03T22:31:29;3.13;;;2.20;;
15526;SDS011;7865;50.918;4.510;2023-04-03T22:36:31;3.87;;;2.03;;
15526;SDS011;7865;50.918;4.510;2023-04-03T22:41:33;6.53;;;2.40;;
15526;SDS011;7865;50.918;4.510;2023-04-03T22:46:35;3.87;;;2.27;;
15526;SDS011;7865;50.918;4.510;2023-04-03T22:51:37;5.53;;;3.20;;
15526;SDS011;7865;50.918;4.510;2023-04-03T22:56:39;5.03;;;2.40;;
15526;SDS011;7865;50.918;4.510;2023-04-03T23:01:42;3.30;;;2.20;;
15526;SDS011;7865;50.918;4.510;2023-04-03T23:06:44;5.53;;;2.60;;
15526;SDS011;7865;50.918;4.510;2023-04-03T23:11:45;5.97;;;2.43;;
15526;SDS011;7865;50.918;4.510;2023-04-03T23:16:47;2.60;;;1.87;;
15526;SDS011;7865;50.918;4.510;2023-04-03T23:21:49;5.67;;;1.80;;
15526;SDS011;7865;50.918;4.510;2023-04-03T23:26:51;3.47;;;2.20;;
15526;SDS011;7865;50.918;4.510;2023-04-03T23:31:53;4.07;;;1.97;;
15526;SDS011;7865;50.918;4.510;2023-04-03T23:36:55;3.40;;;2.00;;
15526;SDS011;7865;50.918;4.510;2023-04-03T23:41:57;3.87;;;2.20;;
15526;SDS011;7865;50.918;4.510;2023-04-03T23:46:59;4.43;;;2.23;;
15526;SDS011;7865;50.918;4.510;2023-04-03T23:52:01;3.00;;;1.87;;
15526;SDS011;7865;50.918;4.510;2023-04-03T23:57:03;3.77;;;1.83;;
